Airfield :
LOGIN :

Register | Disclaimer

   EN    FR    IT 

 










Legend :    VFR   Marginal VFR   IFR   Intensive IFR   Very Intensive IFR
Visi :
Ceiling :
>= 8 km
>= 3000ft
5 to 8 km
1000 to 3000 ft
1500m to 5 km
500 to 1000 ft
800 to 1500m
200 to 500 ft
< 800m
< 200 ft
Symbols :   Thunderstorms  Fog  Heavy snow  Heavy precipitations  Wind > 20 kt
SIGMETs :     Misc.  Thunderstorms  Icing  Turbulence  Mountain Waves  Volcanic Ashes






- Airport Elevation : 25 ft
- IATA code : QCY


EGXC - RAF Coningsby

CURRENT METAR :
  • 071450Z 26016KT 9999 RA FEW010 SCT030 BKN070 13/12 Q1012 RMK BLU

EXPIRED METARs :
  • 071432Z 27014G25KT 2500 +RA FEW010 BKN030 OVC050 14/12 Q1013 RMK YLO1
  • 071420Z 25016KT 9999 -RA FEW010 OVC030 15/13 Q1012 RERA RMK BLU
  • 071404Z 25021KT 2500 +RA SCT012 OVC030 15/12 Q1012 RMK YLO1
  • 071350Z 23019G30KT 9999 BKN035 BKN050 18/10 Q1012 RMK BLU
  • 071250Z 23020KT 9999 FEW035 SCT045 BKN080 18/11 Q1012 TEMPO 6000 RA RMK BLU TEMPO WHT
  • 071220Z 23020KT 9999 SCT037 SCT045 18/10 Q1013 NOSIG RMK BLU BLU

TAF TAF EGXC
Valid from the 07 at 15:00 until the 08 at 09:00 UTC


071315Z 0715/0809 23015G25KT 9999 SCT025
TEMPO 0715/0716 24025G35KT 3000 +RA BKN018
BECMG 0716/0718 25012KT



MET'MAP, your aeronautical weather chart ! - Copyright ORBIFLY December 2007 - Disclaimer

ORBIFLY MET'MAP TEAM :

Programming & Development : Alexandra Zaïnal
Original concept : Baudouin d'Aumeries
Technical & hardware support : Manuel Goepfert
Assistance : Marc-Olivier Méhu




SOURCES & CREDITS :

   NOAA